sensor_id;sensor_type;location;lat;lon;timestamp;pressure;altitude;pressure_sealevel;temperature;humidity
35806;BME280;21925;44.608;11.580;2023-04-19T00:00:33;101762.47;;;15.06;90.69
35806;BME280;21925;44.608;11.580;2023-04-19T00:03:00;101741.06;;;14.48;94.31
35806;BME280;21925;44.608;11.580;2023-04-19T00:05:27;101754.38;;;14.58;95.52
35806;BME280;21925;44.608;11.580;2023-04-19T00:07:52;101744.66;;;14.76;92.49
35806;BME280;21925;44.608;11.580;2023-04-19T00:10:18;101755.75;;;14.91;92.13
35806;BME280;21925;44.608;11.580;2023-04-19T00:12:44;101761.06;;;14.57;94.40
35806;BME280;21925;44.608;11.580;2023-04-19T00:15:10;101755.59;;;14.33;96.93
35806;BME280;21925;44.608;11.580;2023-04-19T00:17:35;101742.03;;;14.28;96.54
35806;BME280;21925;44.608;11.580;2023-04-19T00:20:02;101748.81;;;14.19;97.19
35806;BME280;21925;44.608;11.580;2023-04-19T00:22:28;101745.69;;;14.44;97.10
35806;BME280;21925;44.608;11.580;2023-04-19T00:24:54;101719.97;;;14.04;98.16
35806;BME280;21925;44.608;11.580;2023-04-19T00:27:19;101725.03;;;14.14;98.90
35806;BME280;21925;44.608;11.580;2023-04-19T00:29:45;101744.78;;;13.92;100.00
35806;BME280;21925;44.608;11.580;2023-04-19T00:32:10;101743.91;;;13.88;99.68
35806;BME280;21925;44.608;11.580;2023-04-19T00:34:36;101739.63;;;13.91;98.69
35806;BME280;21925;44.608;11.580;2023-04-19T00:37:01;101725.81;;;14.38;95.25
35806;BME280;21925;44.608;11.580;2023-04-19T00:39:29;101739.78;;;14.57;92.81
35806;BME280;21925;44.608;11.580;2023-04-19T00:41:55;101739.19;;;14.91;91.09
35806;BME280;21925;44.608;11.580;2023-04-19T00:44:22;101724.31;;;14.68;91.90
35806;BME280;21925;44.608;11.580;2023-04-19T00:46:48;101740.84;;;14.41;93.32
35806;BME280;21925;44.608;11.580;2023-04-19T00:49:19;101715.34;;;14.44;94.66
35806;BME280;21925;44.608;11.580;2023-04-19T00:51:45;101722.63;;;14.64;93.86
35806;BME280;21925;44.608;11.580;2023-04-19T00:54:13;101713.53;;;14.91;89.55
35806;BME280;21925;44.608;11.580;2023-04-19T00:56:39;101726.75;;;15.13;87.79
35806;BME280;21925;44.608;11.580;2023-04-19T00:59:05;101723.81;;;14.51;91.58
35806;BME280;21925;44.608;11.580;2023-04-19T01:01:31;101732.38;;;14.22;95.03
35806;BME280;21925;44.608;11.580;2023-04-19T01:03:57;101718.72;;;13.42;100.00
35806;BME280;21925;44.608;11.580;2023-04-19T01:06:22;101713.09;;;13.86;100.00
35806;BME280;21925;44.608;11.580;2023-04-19T01:08:48;101725.50;;;14.04;100.00
35806;BME280;21925;44.608;11.580;2023-04-19T01:11:13;101718.72;;;14.14;98.93
35806;BME280;21925;44.608;11.580;2023-04-19T01:13:39;101717.09;;;14.64;94.01
35806;BME280;21925;44.608;11.580;2023-04-19T01:16:05;101715.75;;;14.58;90.43
35806;BME280;21925;44.608;11.580;2023-04-19T01:18:31;101721.91;;;14.67;89.02
35806;BME280;21925;44.608;11.580;2023-04-19T01:21:03;101710.19;;;14.70;89.54
35806;BME280;21925;44.608;11.580;2023-04-19T01:23:29;101717.78;;;14.22;92.39
35806;BME280;21925;44.608;11.580;2023-04-19T01:25:54;101723.31;;;13.98;97.29
35806;BME280;21925;44.608;11.580;2023-04-19T01:28:20;101720.19;;;13.99;94.04
35806;BME280;21925;44.608;11.580;2023-04-19T01:30:48;101716.41;;;14.28;91.49
35806;BME280;21925;44.608;11.580;2023-04-19T01:33:19;101702.28;;;14.17;90.21
35806;BME280;21925;44.608;11.580;2023-04-19T01:35:46;101712.38;;;14.37;89.41
35806;BME280;21925;44.608;11.580;2023-04-19T01:38:13;101716.06;;;14.29;90.20
35806;BME280;21925;44.608;11.580;2023-04-19T01:40:40;101711.63;;;13.77;97.58
35806;BME280;21925;44.608;11.580;2023-04-19T01:43:06;101716.31;;;13.76;98.63
35806;BME280;21925;44.608;11.580;2023-04-19T01:45:32;101714.50;;;13.80;98.47
35806;BME280;21925;44.608;11.580;2023-04-19T01:47:59;101722.50;;;14.09;94.93
35806;BME280;21925;44.608;11.580;2023-04-19T01:50:27;101707.53;;;14.34;90.54
35806;BME280;21925;44.608;11.580;2023-04-19T01:52:52;101715.91;;;14.37;90.80
35806;BME280;21925;44.608;11.580;2023-04-19T01:55:18;101712.56;;;14.44;89.40
35806;BME280;21925;44.608;11.580;2023-04-19T01:57:43;101695.00;;;14.36;88.32
35806;BME280;21925;44.608;11.580;2023-04-19T02:00:10;101722.66;;;14.52;87.07
35806;BME280;21925;44.608;11.580;2023-04-19T02:02:41;101702.91;;;14.38;87.42
35806;BME280;21925;44.608;11.580;2023-04-19T02:05:07;101712.56;;;14.44;86.58
35806;BME280;21925;44.608;11.580;2023-04-19T02:07:33;101713.25;;;14.53;84.52
35806;BME280;21925;44.608;11.580;2023-04-19T02:09:59;101717.53;;;14.38;86.71
35806;BME280;21925;44.608;11.580;2023-04-19T02:12:28;101711.34;;;14.30;88.37
35806;BME280;21925;44.608;11.580;2023-04-19T02:14:55;101702.91;;;14.38;87.53
35806;BME280;21925;44.608;11.580;2023-04-19T02:17:32;101713.63;;;14.39;88.66
35806;BME280;21925;44.608;11.580;2023-04-19T02:19:59;101699.75;;;14.24;89.53
35806;BME280;21925;44.608;11.580;2023-04-19T02:22:25;101683.19;;;14.24;88.94
35806;BME280;21925;44.608;11.580;2023-04-19T02:24:51;101709.25;;;14.38;89.28
35806;BME280;21925;44.608;11.580;2023-04-19T02:27:17;101702.47;;;14.36;88.91
35806;BME280;21925;44.608;11.580;2023-04-19T02:29:43;101712.28;;;14.61;86.51
35806;BME280;21925;44.608;11.580;2023-04-19T02:32:11;101706.78;;;14.49;88.90
35806;BME280;21925;44.608;11.580;2023-04-19T02:34:37;101706.53;;;14.54;88.19
35806;BME280;21925;44.608;11.580;2023-04-19T02:37:03;101708.34;;;14.62;87.94
35806;BME280;21925;44.608;11.580;2023-04-19T02:39:28;101704.34;;;14.20;87.73
35806;BME280;21925;44.608;11.580;2023-04-19T02:41:54;101704.47;;;14.00;95.39
35806;BME280;21925;44.608;11.580;2023-04-19T02:44:20;101697.56;;;14.18;94.91
35806;BME280;21925;44.608;11.580;2023-04-19T02:46:49;101694.00;;;14.29;94.43
35806;BME280;21925;44.608;11.580;2023-04-19T02:49:15;101698.16;;;14.50;90.68
35806;BME280;21925;44.608;11.580;2023-04-19T02:51:41;101680.50;;;14.39;90.22
35806;BME280;21925;44.608;11.580;2023-04-19T02:54:08;101701.34;;;14.37;88.59
35806;BME280;21925;44.608;11.580;2023-04-19T02:56:34;101682.97;;;14.17;90.36
35806;BME280;21925;44.608;11.580;2023-04-19T02:59:01;101697.38;;;14.50;87.61
35806;BME280;21925;44.608;11.580;2023-04-19T03:01:27;101690.59;;;14.47;87.25
35806;BME280;21925;44.608;11.580;2023-04-19T03:03:52;101686.34;;;14.50;86.32
35806;BME280;21925;44.608;11.580;2023-04-19T03:06:18;101683.28;;;14.39;88.55
35806;BME280;21925;44.608;11.580;2023-04-19T03:08:44;101697.63;;;14.45;87.63
35806;BME280;21925;44.608;11.580;2023-04-19T03:11:10;101690.97;;;14.34;89.28
35806;BME280;21925;44.608;11.580;2023-04-19T03:13:36;101687.56;;;14.25;90.40
35806;BME280;21925;44.608;11.580;2023-04-19T03:16:02;101693.53;;;14.27;90.51
35806;BME280;21925;44.608;11.580;2023-04-19T03:18:30;101691.88;;;14.38;88.66
35806;BME280;21925;44.608;11.580;2023-04-19T03:20:56;101685.56;;;14.37;88.00
35806;BME280;21925;44.608;11.580;2023-04-19T03:23:22;101676.53;;;14.25;89.76
35806;BME280;21925;44.608;11.580;2023-04-19T03:25:49;101693.06;;;14.37;88.24
35806;BME280;21925;44.608;11.580;2023-04-19T03:28:34;101693.84;;;14.37;87.51
35806;BME280;21925;44.608;11.580;2023-04-19T03:31:17;101696.00;;;14.44;86.46
35806;BME280;21925;44.608;11.580;2023-04-19T03:33:46;101679.06;;;14.18;88.46
35806;BME280;21925;44.608;11.580;2023-04-19T03:36:12;101677.91;;;14.07;89.85
35806;BME280;21925;44.608;11.580;2023-04-19T03:38:40;101678.50;;;13.89;93.42
35806;BME280;21925;44.608;11.580;2023-04-19T03:41:22;101674.06;;;13.60;98.65
35806;BME280;21925;44.608;11.580;2023-04-19T03:43:54;101679.44;;;13.81;96.37
35806;BME280;21925;44.608;11.580;2023-04-19T03:46:23;101665.53;;;13.65;98.37
35806;BME280;21925;44.608;11.580;2023-04-19T03:48:49;101664.88;;;13.56;98.14
35806;BME280;21925;44.608;11.580;2023-04-19T03:51:17;101661.66;;;13.78;96.44
35806;BME280;21925;44.608;11.580;2023-04-19T03:53:43;101674.28;;;13.67;97.80
35806;BME280;21925;44.608;11.580;2023-04-19T03:56:08;101664.88;;;13.56;98.08
35806;BME280;21925;44.608;11.580;2023-04-19T03:58:34;101676.91;;;13.40;100.00
35806;BME280;21925;44.608;11.580;2023-04-19T04:01:05;101655.56;;;13.49;100.00
35806;BME280;21925;44.608;11.580;2023-04-19T04:03:33;101666.25;;;13.62;97.65
35806;BME280;21925;44.608;11.580;2023-04-19T04:06:01;101668.78;;;13.32;98.26
35806;BME280;21925;44.608;11.580;2023-04-19T04:08:27;101675.81;;;13.09;100.00
35806;BME280;21925;44.608;11.580;2023-04-19T04:10:53;101650.41;;;12.27;100.00
35806;BME280;21925;44.608;11.580;2023-04-19T04:13:19;101666.13;;;12.06;100.00
35806;BME280;21925;44.608;11.580;2023-04-19T04:15:50;101676.03;;;12.19;100.00
35806;BME280;21925;44.608;11.580;2023-04-19T04:18:16;101677.91;;;12.47;100.00
35806;BME280;21925;44.608;11.580;2023-04-19T04:20:45;101658.06;;;12.74;100.00
35806;BME280;21925;44.608;11.580;2023-04-19T04:23:11;101673.78;;;13.18;100.00
35806;BME280;21925;44.608;11.580;2023-04-19T04:25:40;101673.56;;;13.35;100.00
35806;BME280;21925;44.608;11.580;2023-04-19T04:28:10;101661.66;;;13.54;99.11
35806;BME280;21925;44.608;11.580;2023-04-19T04:30:37;101671.97;;;13.34;100.00
35806;BME280;21925;44.608;11.580;2023-04-19T04:33:04;101663.72;;;13.22;100.00
35806;BME280;21925;44.608;11.580;2023-04-19T04:35:30;101673.13;;;13.45;100.00
35806;BME280;21925;44.608;11.580;2023-04-19T04:38:04;101676.56;;;13.42;100.00
35806;BME280;21925;44.608;11.580;2023-04-19T04:40:32;101661.81;;;12.90;100.00
35806;BME280;21925;44.608;11.580;2023-04-19T04:42:57;101672.63;;;13.07;100.00
35806;BME280;21925;44.608;11.580;2023-04-19T04:45:26;101670.72;;;13.19;100.00
35806;BME280;21925;44.608;11.580;2023-04-19T04:47:54;101664.63;;;13.26;100.00
35806;BME280;21925;44.608;11.580;2023-04-19T04:50:20;101652.81;;;13.25;100.00
35806;BME280;21925;44.608;11.580;2023-04-19T04:52:47;101680.50;;;13.41;100.00
35806;BME280;21925;44.608;11.580;2023-04-19T04:55:21;101668.41;;;13.45;100.00
35806;BME280;21925;44.608;11.580;2023-04-19T04:57:47;101683.72;;;13.54;100.00
35806;BME280;21925;44.608;11.580;2023-04-19T05:00:22;101666.00;;;13.44;100.00
35806;BME280;21925;44.608;11.580;2023-04-19T05:03:01;101669.66;;;13.12;100.00
35806;BME280;21925;44.608;11.580;2023-04-19T05:05:30;101677.94;;;13.24;100.00
35806;BME280;21925;44.608;11.580;2023-04-19T05:07:56;101673.69;;;13.38;100.00
35806;BME280;21925;44.608;11.580;2023-04-19T05:10:21;101667.94;;;13.19;100.00
35806;BME280;21925;44.608;11.580;2023-04-19T05:12:47;101681.63;;;13.40;100.00
35806;BME280;21925;44.608;11.580;2023-04-19T05:15:13;101676.34;;;13.58;100.00
35806;BME280;21925;44.608;11.580;2023-04-19T05:17:44;101673.38;;;13.63;100.00
35806;BME280;21925;44.608;11.580;2023-04-19T05:20:11;101660.50;;;13.32;100.00
35806;BME280;21925;44.608;11.580;2023-04-19T05:22:37;101666.47;;;13.57;100.00
35806;BME280;21925;44.608;11.580;2023-04-19T05:25:05;101676.13;;;13.52;100.00
35806;BME280;21925;44.608;11.580;2023-04-19T05:27:31;101676.13;;;13.63;100.00
35806;BME280;21925;44.608;11.580;2023-04-19T05:29:57;101677.97;;;13.71;100.00
35806;BME280;21925;44.608;11.580;2023-04-19T05:32:22;101670.84;;;13.70;100.00
35806;BME280;21925;44.608;11.580;2023-04-19T05:34:53;101659.34;;;13.45;100.00
35806;BME280;21925;44.608;11.580;2023-04-19T05:37:20;101672.88;;;13.50;100.00
35806;BME280;21925;44.608;11.580;2023-04-19T05:39:46;101675.41;;;13.43;100.00
35806;BME280;21925;44.608;11.580;2023-04-19T05:42:11;101691.75;;;13.48;100.00
35806;BME280;21925;44.608;11.580;2023-04-19T05:44:37;101683.91;;;13.38;100.00
35806;BME280;21925;44.608;11.580;2023-04-19T05:47:03;101687.22;;;13.31;100.00
35806;BME280;21925;44.608;11.580;2023-04-19T05:49:47;101678.97;;;13.55;100.00
35806;BME280;21925;44.608;11.580;2023-04-19T05:52:17;101695.63;;;13.82;100.00
35806;BME280;21925;44.608;11.580;2023-04-19T05:54:47;101693.66;;;13.95;100.00
35806;BME280;21925;44.608;11.580;2023-04-19T05:57:12;101681.59;;;13.99;100.00
35806;BME280;21925;44.608;11.580;2023-04-19T05:59:38;101676.91;;;13.88;100.00
35806;BME280;21925;44.608;11.580;2023-04-19T06:02:04;101665.53;;;13.89;100.00
35806;BME280;21925;44.608;11.580;2023-04-19T06:04:29;101679.00;;;14.42;100.00
35806;BME280;21925;44.608;11.580;2023-04-19T06:06:55;101691.66;;;14.43;100.00
35806;BME280;21925;44.608;11.580;2023-04-19T06:09:21;101689.16;;;14.65;100.00
35806;BME280;21925;44.608;11.580;2023-04-19T06:11:46;101690.97;;;14.89;100.00
35806;BME280;21925;44.608;11.580;2023-04-19T06:14:13;101691.34;;;15.03;100.00
35806;BME280;21925;44.608;11.580;2023-04-19T06:16:39;101685.84;;;15.03;100.00
35806;BME280;21925;44.608;11.580;2023-04-19T06:19:06;101682.34;;;15.48;100.00
35806;BME280;21925;44.608;11.580;2023-04-19T06:21:34;101693.66;;;15.74;100.00
35806;BME280;21925;44.608;11.580;2023-04-19T06:24:01;101687.16;;;15.82;100.00
35806;BME280;21925;44.608;11.580;2023-04-19T06:26:26;101682.81;;;16.00;97.32
35806;BME280;21925;44.608;11.580;2023-04-19T06:28:52;101692.06;;;16.07;96.35
35806;BME280;21925;44.608;11.580;2023-04-19T06:31:17;101696.91;;;15.95;96.83
35806;BME280;21925;44.608;11.580;2023-04-19T06:33:44;101690.56;;;16.10;98.63
35806;BME280;21925;44.608;11.580;2023-04-19T06:36:10;101681.44;;;16.44;96.14
35806;BME280;21925;44.608;11.580;2023-04-19T06:38:35;101684.06;;;16.75;92.08
35806;BME280;21925;44.608;11.580;2023-04-19T06:41:03;101687.72;;;16.78;89.97
35806;BME280;21925;44.608;11.580;2023-04-19T06:43:29;101692.47;;;17.19;87.68
35806;BME280;21925;44.608;11.580;2023-04-19T06:45:58;101660.25;;;17.34;86.94
35806;BME280;21925;44.608;11.580;2023-04-19T06:48:23;101676.78;;;17.49;85.84
35806;BME280;21925;44.608;11.580;2023-04-19T06:50:50;101688.41;;;17.58;83.46
35806;BME280;21925;44.608;11.580;2023-04-19T06:53:15;101676.22;;;17.40;84.56
35806;BME280;21925;44.608;11.580;2023-04-19T06:55:41;101685.09;;;17.49;85.34
35806;BME280;21925;44.608;11.580;2023-04-19T06:58:07;101662.44;;;17.25;87.37
35806;BME280;21925;44.608;11.580;2023-04-19T07:00:35;101689.47;;;17.28;87.95
35806;BME280;21925;44.608;11.580;2023-04-19T07:03:01;101682.28;;;17.27;89.54
35806;BME280;21925;44.608;11.580;2023-04-19T07:05:27;101679.84;;;17.66;91.51
35806;BME280;21925;44.608;11.580;2023-04-19T07:07:53;101677.84;;;17.41;89.92
35806;BME280;21925;44.608;11.580;2023-04-19T07:10:18;101670.13;;;17.54;87.30
35806;BME280;21925;44.608;11.580;2023-04-19T07:12:44;101682.94;;;17.61;86.86
35806;BME280;21925;44.608;11.580;2023-04-19T07:15:10;101682.09;;;18.09;87.39
35806;BME280;21925;44.608;11.580;2023-04-19T07:17:35;101679.25;;;18.06;85.52
35806;BME280;21925;44.608;11.580;2023-04-19T07:20:03;101680.00;;;18.29;83.74
35806;BME280;21925;44.608;11.580;2023-04-19T07:22:29;101669.31;;;18.60;81.67
35806;BME280;21925;44.608;11.580;2023-04-19T07:24:55;101671.16;;;18.82;79.00
35806;BME280;21925;44.608;11.580;2023-04-19T07:27:20;101679.81;;;18.73;82.30
35806;BME280;21925;44.608;11.580;2023-04-19T07:29:46;101665.16;;;18.80;82.06
35806;BME280;21925;44.608;11.580;2023-04-19T07:32:11;101674.31;;;18.80;81.76
35806;BME280;21925;44.608;11.580;2023-04-19T07:34:39;101672.50;;;18.62;79.88
35806;BME280;21925;44.608;11.580;2023-04-19T07:37:06;101667.00;;;18.33;79.62
35806;BME280;21925;44.608;11.580;2023-04-19T07:39:32;101670.16;;;18.35;78.81
35806;BME280;21925;44.608;11.580;2023-04-19T07:41:57;101662.41;;;18.80;79.21
35806;BME280;21925;44.608;11.580;2023-04-19T07:44:23;101660.97;;;18.93;76.02
35806;BME280;21925;44.608;11.580;2023-04-19T07:46:49;101661.34;;;18.58;78.55
35806;BME280;21925;44.608;11.580;2023-04-19T07:49:15;101662.03;;;18.48;82.19
35806;BME280;21925;44.608;11.580;2023-04-19T07:51:40;101667.47;;;18.41;83.92
35806;BME280;21925;44.608;11.580;2023-04-19T07:54:06;101661.09;;;18.38;85.37
35806;BME280;21925;44.608;11.580;2023-04-19T07:56:31;101651.78;;;18.23;81.19
35806;BME280;21925;44.608;11.580;2023-04-19T07:58:59;101648.25;;;18.26;82.01
35806;BME280;21925;44.608;11.580;2023-04-19T08:01:24;101655.03;;;18.61;80.98
35806;BME280;21925;44.608;11.580;2023-04-19T08:03:50;101653.81;;;18.92;78.47
35806;BME280;21925;44.608;11.580;2023-04-19T08:06:16;101666.16;;;18.98;78.79
35806;BME280;21925;44.608;11.580;2023-04-19T08:08:42;101647.13;;;18.63;78.99
35806;BME280;21925;44.608;11.580;2023-04-19T08:11:08;101666.75;;;18.77;80.87
35806;BME280;21925;44.608;11.580;2023-04-19T08:13:33;101662.22;;;18.99;78.28
35806;BME280;21925;44.608;11.580;2023-04-19T08:15:59;101656.91;;;19.23;78.29
35806;BME280;21925;44.608;11.580;2023-04-19T08:18:24;101645.81;;;18.90;77.54
35806;BME280;21925;44.608;11.580;2023-04-19T08:20:50;101651.84;;;19.32;78.16
35806;BME280;21925;44.608;11.580;2023-04-19T08:23:16;101662.22;;;19.89;77.32
35806;BME280;21925;44.608;11.580;2023-04-19T08:25:42;101669.41;;;19.93;76.20
35806;BME280;21925;44.608;11.580;2023-04-19T08:28:07;101655.06;;;19.88;73.76
35806;BME280;21925;44.608;11.580;2023-04-19T08:30:33;101653.63;;;20.04;72.04
35806;BME280;21925;44.608;11.580;2023-04-19T08:32:59;101666.94;;;20.38;72.78
35806;BME280;21925;44.608;11.580;2023-04-19T08:35:25;101667.78;;;20.49;70.66
35806;BME280;21925;44.608;11.580;2023-04-19T08:37:51;101652.03;;;20.95;67.58
35806;BME280;21925;44.608;11.580;2023-04-19T08:40:17;101661.69;;;21.74;66.50
35806;BME280;21925;44.608;11.580;2023-04-19T08:42:42;101645.31;;;21.69;66.05
35806;BME280;21925;44.608;11.580;2023-04-19T08:45:08;101655.31;;;21.84;65.07
35806;BME280;21925;44.608;11.580;2023-04-19T08:47:38;101639.66;;;22.14;63.08
35806;BME280;21925;44.608;11.580;2023-04-19T08:50:05;101646.41;;;22.34;62.46
35806;BME280;21925;44.608;11.580;2023-04-19T08:52:36;101646.38;;;23.20;61.75
35806;BME280;21925;44.608;11.580;2023-04-19T08:55:06;101640.59;;;23.44;59.62
35806;BME280;21925;44.608;11.580;2023-04-19T08:57:33;101646.28;;;22.65;59.58
35806;BME280;21925;44.608;11.580;2023-04-19T08:59:59;101640.00;;;22.41;59.33
35806;BME280;21925;44.608;11.580;2023-04-19T09:02:25;101631.28;;;23.07;57.89
35806;BME280;21925;44.608;11.580;2023-04-19T09:04:51;101637.50;;;22.63;58.28
35806;BME280;21925;44.608;11.580;2023-04-19T09:07:26;101624.59;;;23.44;57.07
35806;BME280;21925;44.608;11.580;2023-04-19T09:10:06;101638.63;;;23.88;56.11
35806;BME280;21925;44.608;11.580;2023-04-19T09:12:35;101637.00;;;24.87;56.97
35806;BME280;21925;44.608;11.580;2023-04-19T09:15:03;101601.88;;;23.35;55.13
35806;BME280;21925;44.608;11.580;2023-04-19T09:17:30;101605.81;;;24.82;57.24
35806;BME280;21925;44.608;11.580;2023-04-19T09:19:56;101625.38;;;24.59;53.49
35806;BME280;21925;44.608;11.580;2023-04-19T09:22:22;101625.47;;;24.52;56.19
35806;BME280;21925;44.608;11.580;2023-04-19T09:24:48;101626.72;;;24.14;55.20
35806;BME280;21925;44.608;11.580;2023-04-19T09:27:30;101627.94;;;24.13;54.14
35806;BME280;21925;44.608;11.580;2023-04-19T09:29:57;101622.28;;;25.09;53.80
35806;BME280;21925;44.608;11.580;2023-04-19T09:32:24;101615.31;;;24.91;52.94
35806;BME280;21925;44.608;11.580;2023-04-19T09:34:51;101618.84;;;24.69;52.10
35806;BME280;21925;44.608;11.580;2023-04-19T09:37:17;101613.97;;;24.73;52.40
35806;BME280;21925;44.608;11.580;2023-04-19T09:39:43;101610.44;;;24.69;50.74
35806;BME280;21925;44.608;11.580;2023-04-19T09:42:08;101605.50;;;26.40;55.34
35806;BME280;21925;44.608;11.580;2023-04-19T09:44:34;101596.00;;;26.69;51.06
35806;BME280;21925;44.608;11.580;2023-04-19T09:47:00;101589.66;;;27.16;51.71
35806;BME280;21925;44.608;11.580;2023-04-19T09:49:25;101596.09;;;27.01;49.79
35806;BME280;21925;44.608;11.580;2023-04-19T09:51:53;101592.38;;;27.20;49.22
35806;BME280;21925;44.608;11.580;2023-04-19T09:54:20;101593.41;;;26.59;48.46
35806;BME280;21925;44.608;11.580;2023-04-19T09:56:48;101588.38;;;26.11;47.67
35806;BME280;21925;44.608;11.580;2023-04-19T09:59:14;101576.53;;;26.20;48.20
35806;BME280;21925;44.608;11.580;2023-04-19T10:01:46;101572.06;;;27.44;48.64
35806;BME280;21925;44.608;11.580;2023-04-19T10:04:14;101579.31;;;28.18;48.38
35806;BME280;21925;44.608;11.580;2023-04-19T10:06:50;101566.59;;;28.26;46.54
35806;BME280;21925;44.608;11.580;2023-04-19T10:09:17;101566.53;;;28.54;48.56
35806;BME280;21925;44.608;11.580;2023-04-19T10:11:48;101564.63;;;28.63;46.54
35806;BME280;21925;44.608;11.580;2023-04-19T10:14:15;101568.13;;;29.17;49.00
35806;BME280;21925;44.608;11.580;2023-04-19T10:16:40;101553.03;;;28.86;46.32
35806;BME280;21925;44.608;11.580;2023-04-19T10:19:11;101561.72;;;28.92;44.66
35806;BME280;21925;44.608;11.580;2023-04-19T10:21:38;101556.09;;;29.63;45.15
35806;BME280;21925;44.608;11.580;2023-04-19T10:24:05;101543.09;;;28.94;45.59
35806;BME280;21925;44.608;11.580;2023-04-19T10:30:01;101552.13;;;29.14;45.23
35806;BME280;21925;44.608;11.580;2023-04-19T10:32:37;101531.59;;;29.47;43.83
35806;BME280;21925;44.608;11.580;2023-04-19T10:35:16;101532.59;;;28.82;41.23
35806;BME280;21925;44.608;11.580;2023-04-19T10:38:04;101522.50;;;28.03;44.06
35806;BME280;21925;44.608;11.580;2023-04-19T10:43:18;101512.97;;;29.25;45.68
35806;BME280;21925;44.608;11.580;2023-04-19T10:45:44;101511.69;;;30.06;46.45
35806;BME280;21925;44.608;11.580;2023-04-19T10:51:37;101501.25;;;30.85;44.75
35806;BME280;21925;44.608;11.580;2023-04-19T10:54:05;101495.22;;;31.13;44.93
35806;BME280;21925;44.608;11.580;2023-04-19T11:01:42;101478.38;;;31.28;42.46
35806;BME280;21925;44.608;11.580;2023-04-19T11:09:23;101474.34;;;31.64;41.73
35806;BME280;21925;44.608;11.580;2023-04-19T11:11:49;101464.78;;;32.21;46.01
35806;BME280;21925;44.608;11.580;2023-04-19T11:14:15;101458.22;;;31.97;41.22
35806;BME280;21925;44.608;11.580;2023-04-19T11:16:41;101443.94;;;32.24;41.80
35806;BME280;21925;44.608;11.580;2023-04-19T11:19:07;101453.63;;;32.50;41.49
35806;BME280;21925;44.608;11.580;2023-04-19T11:21:32;101443.34;;;32.20;42.36
35806;BME280;21925;44.608;11.580;2023-04-19T11:24:09;101437.28;;;31.23;44.01
35806;BME280;21925;44.608;11.580;2023-04-19T11:26:35;101440.31;;;28.92;41.22
35806;BME280;21925;44.608;11.580;2023-04-19T11:29:00;101432.47;;;29.85;41.91
35806;BME280;21925;44.608;11.580;2023-04-19T11:31:26;101429.88;;;31.08;42.53
35806;BME280;21925;44.608;11.580;2023-04-19T11:33:53;101430.25;;;30.71;42.61
35806;BME280;21925;44.608;11.580;2023-04-19T11:36:18;101431.41;;;30.91;40.40
35806;BME280;21925;44.608;11.580;2023-04-19T11:38:47;101412.59;;;30.18;42.36
35806;BME280;21925;44.608;11.580;2023-04-19T11:41:14;101420.22;;;30.78;42.91
35806;BME280;21925;44.608;11.580;2023-04-19T11:43:39;101410.59;;;32.10;45.67
35806;BME280;21925;44.608;11.580;2023-04-19T11:46:10;101430.06;;;32.67;43.37
35806;BME280;21925;44.608;11.580;2023-04-19T11:48:37;101413.69;;;32.62;42.94
35806;BME280;21925;44.608;11.580;2023-04-19T11:51:03;101411.28;;;32.70;41.70
35806;BME280;21925;44.608;11.580;2023-04-19T11:53:31;101408.63;;;32.90;42.26
35806;BME280;21925;44.608;11.580;2023-04-19T11:56:05;101407.19;;;32.30;41.23
35806;BME280;21925;44.608;11.580;2023-04-19T12:01:07;101404.25;;;33.03;40.27
35806;BME280;21925;44.608;11.580;2023-04-19T12:03:54;101401.41;;;32.80;41.65
35806;BME280;21925;44.608;11.580;2023-04-19T12:06:27;101383.19;;;32.40;40.66
35806;BME280;21925;44.608;11.580;2023-04-19T12:08:55;101394.53;;;32.72;40.90
35806;BME280;21925;44.608;11.580;2023-04-19T12:11:22;101396.44;;;31.83;39.26
35806;BME280;21925;44.608;11.580;2023-04-19T12:14:07;101386.22;;;30.70;38.98
35806;BME280;21925;44.608;11.580;2023-04-19T12:16:33;101369.25;;;31.32;42.36
35806;BME280;21925;44.608;11.580;2023-04-19T12:21:38;101368.59;;;32.23;42.70
35806;BME280;21925;44.608;11.580;2023-04-19T12:24:04;101354.78;;;32.07;40.71
35806;BME280;21925;44.608;11.580;2023-04-19T12:26:30;101344.81;;;32.44;40.51
35806;BME280;21925;44.608;11.580;2023-04-19T12:28:57;101369.88;;;32.78;40.93
35806;BME280;21925;44.608;11.580;2023-04-19T12:31:23;101355.97;;;32.24;40.34
35806;BME280;21925;44.608;11.580;2023-04-19T12:33:49;101359.19;;;30.95;38.98
35806;BME280;21925;44.608;11.580;2023-04-19T12:36:14;101317.06;;;30.40;40.04
35806;BME280;21925;44.608;11.580;2023-04-19T12:38:40;101354.91;;;31.63;41.99
35806;BME280;21925;44.608;11.580;2023-04-19T12:41:06;101332.56;;;31.64;41.32
35806;BME280;21925;44.608;11.580;2023-04-19T12:43:32;101332.22;;;31.63;40.35
35806;BME280;21925;44.608;11.580;2023-04-19T12:45:58;101330.19;;;30.82;41.40
35806;BME280;21925;44.608;11.580;2023-04-19T12:48:24;101332.88;;;30.68;41.98
35806;BME280;21925;44.608;11.580;2023-04-19T12:50:50;101324.69;;;30.52;41.56
35806;BME280;21925;44.608;11.580;2023-04-19T12:53:16;101327.81;;;30.54;40.33
35806;BME280;21925;44.608;11.580;2023-04-19T12:55:42;101326.06;;;29.99;41.99
35806;BME280;21925;44.608;11.580;2023-04-19T12:58:15;101314.66;;;30.69;41.05
35806;BME280;21925;44.608;11.580;2023-04-19T13:00:42;101305.69;;;30.22;41.01
35806;BME280;21925;44.608;11.580;2023-04-19T13:03:08;101283.81;;;31.07;42.02